Aérodrome :
LOGIN :

S'inscrire | Disclaimer

   EN    FR    IT 

 










Légende :    VFR   VFR Marginal   IFR   IFR Intensif   IFR Très Intensif
Visi : 
Plafond : 
>= 8 km
>= 3000ft
5 à 8 km
1000 à 3000 ft
1500m à 5 km
500 à 1000 ft
800 à 1500m
200 à 500 ft
< 800m
< 200 ft
Symboles :   Orages  Brouillard  Fortes neiges  Fortes précipitations  Vent > 20 kt
SIGMETs :   Divers  Orages  Givrage  Turbulence  Onde Orograph.  Cendres Volcan.







- Altitude de l'aérodrome : 580 ft
- Voir les cartes d'approche


LFOA - Avord

DERNIER METAR :
  • 181100Z AUTO 09007KT CAVOK 20/13 Q1013 NOSIG

METARs EXPIRÉS :
  • 181030Z AUTO 13006KT 100V160 CAVOK 20/11 Q1014 NOSIG
  • 181000Z AUTO 13007KT CAVOK 19/12 Q1014 NOSIG
  • 180930Z AUTO 13007KT CAVOK 18/12 Q1014 NOSIG
  • 180900Z AUTO 12004KT 090V160 CAVOK 17/11 Q1014 NOSIG
  • 180830Z AUTO 10006KT CAVOK 15/11 Q1014 NOSIG

TAF TAF LFOA
Valide du 18 à 09h jusqu'au 19 à 09h UTC


180800Z 1809/1909 11005KT CAVOK
PROB30
TEMPO 1906/1909 4000 SHRA SCT040TCU
Pas de NOTAMs connus pour ce terrain.



MET'MAP, la Météo Aéronautique d'un coup d'oeil ! - Copyright ORBIFLY Décembre 2007 - Disclaimer

ORBIFLY MET'MAP TEAM :

Programmation & Développement : Alexandra Zaïnal
Conception & Développement : Baudouin d'Aumeries
Co-Programmation & Développement : Marc-Olivier Méhu
Soutien technique & logistique : Manuel Goepfert

Contact : metmap@orbifly.com




SOURCES & CREDITS :

   NOAA